createdAt,value
2022-10-30T00:01:56.076Z,66.10
2022-10-30T00:04:22.893Z,66.20
2022-10-30T00:06:49.725Z,66.20
2022-10-30T00:09:16.460Z,66.20
2022-10-30T00:11:43.228Z,66.20
2022-10-30T00:14:10.143Z,66.20
2022-10-30T00:16:36.890Z,66.20
2022-10-30T00:19:03.741Z,66.20
2022-10-30T00:21:30.392Z,66.20
2022-10-30T00:23:57.149Z,66.20
2022-10-30T00:26:24.994Z,66.30
2022-10-30T00:28:52.934Z,66.30
2022-10-30T00:31:20.372Z,66.30
2022-10-30T00:33:51.814Z,66.30
2022-10-30T00:36:18.739Z,66.40
2022-10-30T00:38:45.652Z,66.30
2022-10-30T00:41:21.721Z,66.30
2022-10-30T00:43:48.941Z,66.30
2022-10-30T00:46:19.422Z,66.30
2022-10-30T00:48:59.446Z,66.20
2022-10-30T00:51:28.970Z,66.40
2022-10-30T00:53:58.785Z,66.30
2022-10-30T00:56:26.209Z,66.30
2022-10-30T00:59:09.549Z,66.30
2022-10-30T01:01:40.176Z,66.40
2022-10-30T01:04:07.456Z,66.40
2022-10-30T01:06:38.302Z,66.40
2022-10-30T01:09:06.454Z,66.40
2022-10-30T01:11:33.254Z,67.00
2022-10-30T01:14:06.056Z,66.40
2022-10-30T01:16:41.450Z,66.30
2022-10-30T01:19:34.404Z,66.50
2022-10-30T01:22:10.024Z,66.50
2022-10-30T01:24:47.116Z,66.60
2022-10-30T01:27:41.992Z,66.40
2022-10-30T01:30:22.852Z,66.40
2022-10-30T01:32:58.730Z,66.40
2022-10-30T01:36:01.286Z,66.40
2022-10-30T01:38:47.991Z,66.50
2022-10-30T01:41:14.808Z,66.50
2022-10-30T01:43:44.205Z,66.50
2022-10-30T01:46:44.092Z,66.50
2022-10-30T01:49:35.888Z,66.60
2022-10-30T01:52:28.819Z,66.60
2022-10-30T01:55:12.645Z,66.60
2022-10-30T01:57:51.759Z,66.60
2022-10-30T02:00:20.440Z,66.70
2022-10-30T02:02:49.369Z,66.60
2022-10-30T02:05:42.177Z,66.70
2022-10-30T02:08:08.921Z,66.70
2022-10-30T02:10:37.440Z,66.60
2022-10-30T02:13:04.174Z,66.60
2022-10-30T02:15:31.674Z,66.60
2022-10-30T02:17:58.883Z,66.60
2022-10-30T02:20:26.583Z,66.60
2022-10-30T02:22:58.020Z,66.70
2022-10-30T02:25:26.294Z,66.60
2022-10-30T02:27:53.280Z,66.70
2022-10-30T02:30:19.946Z,66.80
2022-10-30T02:32:46.758Z,66.80
2022-10-30T02:35:13.566Z,66.80
2022-10-30T02:37:40.302Z,66.80
2022-10-30T02:40:10.757Z,66.80
2022-10-30T02:42:37.429Z,66.80
2022-10-30T02:45:04.385Z,66.80
2022-10-30T02:47:31.167Z,66.90
2022-10-30T02:49:58.404Z,66.90
2022-10-30T02:52:25.075Z,66.80
2022-10-30T02:54:51.752Z,66.80
2022-10-30T02:57:18.528Z,66.90
2022-10-30T02:59:45.192Z,66.90
2022-10-30T03:02:12.397Z,66.90
2022-10-30T03:04:39.121Z,66.90
2022-10-30T03:07:05.862Z,66.90
2022-10-30T03:09:32.646Z,66.80
2022-10-30T03:11:59.344Z,66.90
2022-10-30T03:14:26.001Z,67.00
2022-10-30T03:16:52.797Z,67.00
2022-10-30T03:24:14.307Z,66.90
2022-10-30T03:26:41.185Z,67.10
2022-10-30T03:29:07.879Z,67.10
2022-10-30T03:31:34.577Z,67.20
2022-10-30T03:34:01.215Z,67.70
2022-10-30T03:36:27.923Z,67.10
2022-10-30T03:38:54.593Z,67.10
2022-10-30T03:41:21.248Z,67.10
2022-10-30T03:43:48.004Z,67.10
2022-10-30T03:46:14.645Z,67.10
2022-10-30T03:48:41.282Z,67.10
2022-10-30T03:51:08.047Z,67.10
2022-10-30T03:53:35.829Z,67.10
2022-10-30T03:56:04.233Z,67.00
2022-10-30T03:58:31.079Z,67.10
2022-10-30T04:01:05.677Z,67.10
2022-10-30T04:03:32.881Z,67.10
2022-10-30T04:05:59.862Z,67.10
2022-10-30T04:08:26.597Z,67.10
2022-10-30T04:10:53.373Z,67.10
2022-10-30T04:15:56.092Z,67.20
2022-10-30T04:18:25.458Z,67.20
2022-10-30T04:20:52.176Z,67.30
2022-10-30T04:23:20.367Z,67.40
2022-10-30T04:25:47.669Z,67.60
2022-10-30T04:28:14.944Z,67.60
2022-10-30T04:33:12.236Z,67.80
2022-10-30T04:35:40.046Z,68.00
2022-10-30T04:38:12.423Z,68.10
2022-10-30T04:40:41.151Z,68.30
2022-10-30T04:43:08.563Z,68.40
2022-10-30T04:45:36.089Z,68.40
2022-10-30T04:48:04.945Z,68.50
2022-10-30T04:50:32.724Z,68.70
2022-10-30T04:53:07.983Z,68.70
2022-10-30T04:55:34.617Z,68.70
2022-10-30T04:58:04.824Z,68.80
2022-10-30T05:00:32.227Z,68.90
2022-10-30T05:03:01.142Z,68.80
2022-10-30T05:05:29.413Z,68.80
2022-10-30T05:07:56.401Z,68.70
2022-10-30T05:10:23.456Z,68.60
2022-10-30T05:12:51.989Z,68.60
2022-10-30T05:15:18.580Z,68.60
2022-10-30T05:17:45.235Z,68.50
2022-10-30T05:20:14.821Z,68.50
2022-10-30T05:22:44.535Z,68.50
2022-10-30T05:25:11.192Z,68.60
2022-10-30T05:27:37.829Z,68.50
2022-10-30T05:30:04.878Z,68.50
2022-10-30T05:32:31.530Z,68.50
2022-10-30T05:34:58.170Z,68.60
2022-10-30T05:37:25.089Z,68.80
2022-10-30T05:39:51.739Z,69.00
2022-10-30T05:42:18.467Z,69.00
2022-10-30T05:45:00.515Z,69.00
2022-10-30T05:47:27.920Z,69.00
2022-10-30T05:49:54.593Z,68.90
2022-10-30T05:52:21.336Z,69.00
2022-10-30T05:54:48.049Z,69.20
2022-10-30T05:57:14.694Z,69.10
2022-10-30T05:59:41.395Z,69.10
2022-10-30T06:02:08.105Z,69.10
2022-10-30T06:04:34.904Z,69.00
2022-10-30T06:07:01.614Z,68.90
2022-10-30T06:09:28.398Z,68.90
2022-10-30T06:11:55.667Z,68.90
2022-10-30T06:14:22.375Z,68.80
2022-10-30T06:16:49.109Z,68.70
2022-10-30T06:19:18.704Z,68.70
2022-10-30T06:26:40.684Z,68.60
2022-10-30T06:29:07.637Z,68.30
2022-10-30T06:31:34.376Z,67.80
2022-10-30T06:34:01.123Z,68.00
2022-10-30T06:36:28.006Z,68.30
2022-10-30T06:38:55.718Z,68.50
2022-10-30T06:41:26.102Z,68.80
2022-10-30T06:43:56.839Z,69.00
2022-10-30T06:46:26.973Z,69.20
2022-10-30T06:48:57.473Z,69.40
2022-10-30T06:51:24.654Z,69.50
2022-10-30T06:53:51.309Z,69.60
2022-10-30T06:56:17.989Z,69.70
2022-10-30T06:58:44.708Z,70.00
2022-10-30T07:01:11.384Z,70.20
2022-10-30T07:03:38.094Z,70.20
2022-10-30T07:06:05.171Z,70.20
2022-10-30T07:08:32.650Z,70.20
2022-10-30T07:10:59.480Z,70.30
2022-10-30T07:13:26.180Z,70.40
2022-10-30T07:15:52.924Z,70.40
2022-10-30T07:18:19.654Z,70.60
2022-10-30T07:20:46.421Z,70.70
2022-10-30T07:23:13.117Z,70.80
2022-10-30T07:25:39.771Z,71.00
2022-10-30T07:28:06.451Z,71.10
2022-10-30T07:30:33.247Z,71.20
2022-10-30T07:33:02.452Z,71.30
2022-10-30T07:35:30.363Z,71.30
2022-10-30T07:38:11.397Z,71.40
2022-10-30T07:40:38.372Z,71.40
2022-10-30T07:43:05.963Z,71.50
2022-10-30T07:45:33.307Z,71.60
2022-10-30T07:48:00.523Z,71.70
2022-10-30T07:50:27.848Z,71.80
2022-10-30T07:52:54.605Z,71.80
2022-10-30T07:55:21.250Z,71.90
2022-10-30T07:57:48.399Z,71.90
2022-10-30T08:00:16.830Z,72.00
2022-10-30T08:02:43.634Z,72.10
2022-10-30T08:05:10.813Z,72.20
2022-10-30T08:07:38.604Z,72.20
2022-10-30T08:10:06.820Z,72.30
2022-10-30T08:12:34.431Z,72.30
2022-10-30T08:15:01.455Z,72.30
2022-10-30T08:17:29.253Z,72.30
2022-10-30T08:19:57.167Z,72.40
2022-10-30T08:22:24.880Z,72.30
2022-10-30T08:24:51.789Z,72.50
2022-10-30T08:27:18.499Z,72.50
2022-10-30T08:29:45.254Z,72.70
2022-10-30T08:32:12.037Z,72.80
2022-10-30T08:34:38.753Z,72.80
2022-10-30T08:37:07.858Z,72.90
2022-10-30T08:39:34.657Z,72.70
2022-10-30T08:42:01.327Z,72.60
2022-10-30T08:44:29.052Z,72.70
2022-10-30T08:46:55.808Z,72.70
2022-10-30T08:49:22.547Z,72.60
2022-10-30T08:51:49.227Z,72.60
2022-10-30T08:54:15.884Z,72.60
2022-10-30T08:56:42.515Z,72.80
2022-10-30T08:59:10.224Z,73.10
2022-10-30T09:01:37.135Z,73.60
2022-10-30T09:04:04.066Z,73.60
2022-10-30T09:06:31.814Z,73.60
2022-10-30T09:08:58.802Z,73.40
2022-10-30T09:11:25.665Z,73.10
2022-10-30T09:13:52.439Z,73.20
2022-10-30T09:16:19.198Z,73.00
2022-10-30T09:18:45.839Z,73.00
2022-10-30T09:21:13.345Z,73.50
2022-10-30T09:23:40.030Z,73.20
2022-10-30T09:26:06.742Z,73.10
2022-10-30T09:28:33.475Z,73.20
2022-10-30T09:31:02.120Z,73.10
2022-10-30T09:33:29.013Z,72.90
2022-10-30T09:35:55.863Z,73.20
2022-10-30T09:38:22.582Z,73.10
2022-10-30T09:41:01.158Z,73.20
2022-10-30T09:43:52.485Z,73.40
2022-10-30T09:46:45.203Z,74.00
2022-10-30T09:49:31.570Z,73.80
2022-10-30T09:52:13.827Z,73.60
2022-10-30T09:55:09.705Z,73.60
2022-10-30T09:57:44.804Z,73.20
2022-10-30T10:00:15.102Z,73.20
2022-10-30T10:02:58.234Z,73.30
2022-10-30T10:05:29.556Z,73.40
2022-10-30T10:08:04.358Z,73.60
2022-10-30T10:10:42.282Z,73.80
2022-10-30T10:13:55.641Z,75.00
2022-10-30T10:16:29.120Z,73.70
2022-10-30T10:19:02.638Z,74.00
2022-10-30T10:21:31.605Z,73.90
2022-10-30T10:24:01.546Z,73.20
2022-10-30T10:26:47.628Z,73.90
2022-10-30T10:29:42.068Z,74.20
2022-10-30T10:32:43.190Z,74.20
2022-10-30T10:35:21.905Z,74.40
2022-10-30T10:38:16.464Z,74.70
2022-10-30T10:46:32.290Z,74.50
2022-10-30T10:49:40.626Z,73.90
2022-10-30T10:52:21.671Z,74.20
2022-10-30T10:55:00.362Z,73.80
2022-10-30T10:57:33.210Z,73.30
2022-10-30T11:00:07.130Z,73.60
2022-10-30T11:03:03.981Z,72.20
2022-10-30T11:05:39.967Z,72.20
2022-10-30T11:08:29.429Z,72.00
2022-10-30T11:11:04.550Z,72.60
2022-10-30T11:18:55.061Z,72.30
2022-10-30T11:21:26.630Z,72.40
2022-10-30T11:23:53.658Z,72.40
2022-10-30T11:29:02.203Z,72.40
2022-10-30T11:31:37.754Z,72.40
2022-10-30T11:34:19.743Z,73.40
2022-10-30T11:36:48.751Z,72.30
2022-10-30T11:39:26.118Z,71.70
2022-10-30T11:42:12.086Z,71.90
2022-10-30T11:44:44.021Z,70.50
2022-10-30T11:47:12.963Z,69.90
2022-10-30T11:49:52.778Z,69.40
2022-10-30T11:52:22.832Z,69.20
2022-10-30T11:54:54.318Z,68.90
2022-10-30T12:02:27.347Z,68.30
2022-10-30T12:04:55.337Z,68.30
2022-10-30T12:07:29.413Z,68.60
2022-10-30T12:09:59.447Z,67.50
2022-10-30T12:22:34.822Z,68.20
2022-10-30T12:35:35.842Z,69.00
2022-10-30T12:38:04.601Z,68.50
2022-10-30T12:40:35.934Z,69.20
2022-10-30T12:43:24.491Z,68.30
2022-10-30T12:45:56.975Z,66.50
2022-10-30T12:48:49.513Z,67.00
2022-10-30T12:56:43.464Z,66.70
2022-10-30T12:59:54.424Z,67.40
2022-10-30T13:02:27.238Z,66.40
2022-10-30T13:05:00.475Z,66.20
2022-10-30T13:07:38.996Z,66.50
2022-10-30T13:10:19.496Z,65.90
2022-10-30T13:12:52.491Z,65.80
2022-10-30T13:15:33.897Z,65.50
2022-10-30T13:18:13.835Z,67.40
2022-10-30T13:20:41.595Z,67.80
2022-10-30T13:23:21.233Z,67.10
2022-10-30T13:26:08.426Z,67.50
2022-10-30T13:28:51.743Z,67.70
2022-10-30T13:31:44.015Z,67.20
2022-10-30T13:34:42.822Z,66.90
2022-10-30T13:37:21.812Z,66.70
2022-10-30T13:40:11.579Z,66.80
2022-10-30T13:43:22.982Z,66.70
2022-10-30T13:46:07.653Z,67.00
2022-10-30T13:48:48.940Z,67.80
2022-10-30T13:51:34.864Z,67.60
2022-10-30T13:54:19.468Z,67.10
2022-10-30T13:56:48.181Z,66.90
2022-10-30T13:59:29.540Z,67.20
2022-10-30T14:02:21.698Z,67.20
2022-10-30T14:05:02.134Z,67.20
2022-10-30T14:08:05.209Z,67.60
2022-10-30T14:10:39.074Z,67.10
2022-10-30T14:13:13.431Z,67.40
2022-10-30T14:15:45.625Z,68.20
2022-10-30T14:18:12.261Z,67.70
2022-10-30T14:20:42.737Z,67.50
2022-10-30T14:23:19.457Z,68.40
2022-10-30T14:26:13.169Z,67.80
2022-10-30T14:28:45.167Z,68.40
2022-10-30T14:31:20.126Z,68.00
2022-10-30T14:33:50.826Z,68.30
2022-10-30T14:36:37.914Z,68.10
2022-10-30T14:39:13.083Z,68.30
2022-10-30T14:41:54.241Z,68.70
2022-10-30T14:44:52.045Z,68.50
2022-10-30T14:47:46.545Z,68.20
2022-10-30T14:50:31.145Z,68.10
2022-10-30T14:53:42.930Z,68.30
2022-10-30T14:56:34.394Z,68.20
2022-10-30T14:59:13.342Z,68.50
2022-10-30T15:01:55.474Z,69.00
2022-10-30T15:04:24.413Z,68.90
2022-10-30T15:07:21.947Z,68.20
2022-10-30T15:10:21.317Z,67.80
2022-10-30T15:13:11.918Z,68.50
2022-10-30T15:15:38.812Z,68.50
2022-10-30T15:18:16.017Z,68.70
2022-10-30T15:20:42.821Z,68.60
2022-10-30T15:23:16.422Z,68.60
2022-10-30T15:25:49.284Z,68.80
2022-10-30T15:28:22.783Z,69.00
2022-10-30T15:31:05.471Z,68.00
2022-10-30T15:33:37.153Z,67.60
2022-10-30T15:36:05.026Z,67.60
2022-10-30T15:38:31.851Z,68.00
2022-10-30T15:41:02.915Z,67.50
2022-10-30T15:43:34.326Z,67.60
2022-10-30T15:46:01.103Z,67.80
2022-10-30T15:48:34.085Z,67.80
2022-10-30T15:51:14.870Z,67.70
2022-10-30T15:53:51.890Z,67.80
2022-10-30T15:56:28.658Z,67.80
2022-10-30T15:59:07.205Z,68.00
2022-10-30T16:01:43.771Z,68.10
2022-10-30T16:04:31.370Z,68.20
2022-10-30T16:07:00.337Z,68.20
2022-10-30T16:09:28.802Z,68.30
2022-10-30T16:11:57.177Z,68.40
2022-10-30T16:14:28.864Z,68.40
2022-10-30T16:16:59.789Z,68.20
2022-10-30T16:19:33.797Z,69.10
2022-10-30T16:22:02.637Z,68.50
2022-10-30T16:24:33.945Z,68.40
2022-10-30T16:27:13.670Z,68.40
2022-10-30T17:56:24.169Z,68.30
2022-10-30T17:58:50.879Z,67.00
2022-10-30T18:01:21.728Z,67.50
2022-10-30T18:03:49.396Z,67.50
2022-10-30T18:06:19.036Z,67.40
2022-10-30T18:08:50.560Z,67.30
2022-10-30T18:11:20.101Z,67.30
2022-10-30T18:13:48.199Z,67.20
2022-10-30T18:16:16.293Z,67.20
2022-10-30T18:18:44.061Z,67.30
2022-10-30T18:21:17.144Z,67.20
2022-10-30T18:23:52.755Z,67.20
2022-10-30T18:26:25.630Z,67.20
2022-10-30T18:28:52.820Z,67.10
2022-10-30T18:31:22.340Z,67.20
2022-10-30T18:33:49.098Z,67.10
2022-10-30T18:36:18.463Z,67.00
2022-10-30T18:38:45.352Z,67.00
2022-10-30T18:41:16.568Z,67.00
2022-10-30T18:43:46.646Z,67.00
2022-10-30T18:46:15.675Z,67.20
2022-10-30T18:48:43.031Z,67.30
2022-10-30T18:51:23.991Z,67.20
2022-10-30T19:03:43.835Z,67.10
2022-10-30T19:06:15.643Z,66.90
2022-10-30T19:08:42.291Z,66.70
2022-10-30T19:11:24.239Z,66.60
2022-10-30T19:13:52.938Z,66.40
2022-10-30T19:16:20.358Z,66.20
2022-10-30T19:18:47.528Z,66.00
2022-10-30T19:21:25.816Z,65.80
2022-10-30T19:23:52.737Z,65.60
2022-10-30T19:26:19.485Z,66.10
2022-10-30T19:28:46.435Z,65.60
2022-10-30T19:31:14.896Z,65.20
2022-10-30T19:33:41.693Z,64.80
2022-10-30T19:36:31.809Z,65.70
2022-10-30T19:39:00.807Z,64.60
2022-10-30T19:43:57.290Z,64.30
2022-10-30T19:46:23.972Z,64.30
2022-10-30T19:48:59.187Z,64.20
2022-10-30T19:51:28.599Z,63.90
2022-10-30T19:53:55.577Z,64.00
2022-10-30T19:56:22.288Z,64.00
2022-10-30T19:58:49.440Z,63.70
2022-10-30T20:01:16.598Z,63.80
2022-10-30T20:03:43.483Z,63.80
2022-10-30T20:06:12.515Z,63.80
2022-10-30T20:08:39.206Z,63.50
2022-10-30T20:11:05.930Z,63.60
2022-10-30T20:13:33.448Z,63.40
2022-10-30T20:16:04.522Z,63.50
2022-10-30T20:18:33.785Z,63.40
2022-10-30T20:21:02.665Z,63.20
2022-10-30T20:23:30.627Z,63.20
2022-10-30T20:26:02.628Z,63.00
2022-10-30T20:28:38.481Z,62.90
2022-10-30T20:31:06.543Z,62.70
2022-10-30T20:33:34.003Z,63.00
2022-10-30T20:36:00.989Z,63.10
2022-10-30T20:38:33.128Z,63.30
2022-10-30T20:41:02.496Z,62.90
2022-10-30T20:43:38.615Z,62.80
2022-10-30T20:46:09.353Z,62.60
2022-10-30T20:48:37.892Z,62.70
2022-10-30T20:51:04.870Z,62.70
2022-10-30T20:53:33.099Z,63.90
2022-10-30T20:55:59.963Z,62.60
2022-10-30T20:58:26.955Z,62.40
2022-10-30T21:00:55.754Z,62.10
2022-10-30T21:03:22.587Z,62.00
2022-10-30T21:05:58.462Z,62.10
2022-10-30T21:08:27.043Z,62.30
2022-10-30T21:10:57.760Z,62.40
2022-10-30T21:13:24.494Z,62.70
2022-10-30T21:15:51.512Z,62.90
2022-10-30T21:18:18.391Z,63.30
2022-10-30T21:20:45.112Z,63.10
2022-10-30T21:23:13.075Z,63.20
2022-10-30T21:25:39.717Z,63.20
2022-10-30T21:28:06.370Z,63.30
2022-10-30T21:30:33.113Z,63.30
2022-10-30T21:33:00.152Z,63.10
2022-10-30T21:35:28.377Z,63.30
2022-10-30T21:37:55.139Z,63.40
2022-10-30T21:40:21.892Z,64.20
2022-10-30T21:42:48.935Z,63.40
2022-10-30T21:45:16.424Z,63.40
2022-10-30T21:47:43.225Z,63.40
2022-10-30T21:50:12.700Z,63.30
2022-10-30T21:52:40.051Z,63.30
2022-10-30T21:55:07.280Z,63.30
2022-10-30T21:57:34.100Z,63.20
2022-10-30T22:00:03.619Z,63.30
2022-10-30T22:02:34.245Z,63.40
2022-10-30T22:05:00.958Z,63.30
2022-10-30T22:07:27.811Z,63.20
2022-10-30T22:09:54.569Z,63.20
2022-10-30T22:12:21.217Z,63.20
2022-10-30T22:14:47.911Z,63.90
2022-10-30T22:17:14.588Z,63.30
2022-10-30T22:19:41.275Z,63.30
2022-10-30T22:22:08.008Z,63.30
2022-10-30T22:24:37.487Z,63.10
2022-10-30T22:27:04.202Z,63.10
2022-10-30T22:29:30.891Z,62.90
2022-10-30T22:31:57.650Z,62.70
2022-10-30T22:34:24.289Z,62.60
2022-10-30T22:36:51.004Z,62.50
2022-10-30T22:39:18.072Z,62.50
2022-10-30T22:41:44.723Z,62.50
2022-10-30T22:44:13.694Z,62.50
2022-10-30T22:46:40.762Z,62.50
2022-10-30T22:49:07.947Z,62.70
2022-10-30T22:51:36.122Z,62.70
2022-10-30T22:54:05.330Z,62.80
2022-10-30T22:56:34.320Z,62.70
2022-10-30T22:59:04.576Z,62.80
2022-10-30T23:01:33.802Z,62.90
2022-10-30T23:04:02.258Z,62.90
2022-10-30T23:06:30.911Z,62.80
2022-10-30T23:08:59.690Z,62.80
2022-10-30T23:11:27.559Z,62.90
2022-10-30T23:13:54.392Z,63.10
2022-10-30T23:16:23.440Z,63.20
2022-10-30T23:21:21.240Z,63.60
2022-10-30T23:23:48.649Z,64.30
2022-10-30T23:26:21.486Z,64.60
2022-10-30T23:28:49.582Z,65.00
2022-10-30T23:31:27.245Z,65.20
2022-10-30T23:33:56.286Z,65.50
2022-10-30T23:36:23.906Z,65.60
2022-10-30T23:38:55.108Z,65.70
2022-10-30T23:41:23.932Z,65.80
2022-10-30T23:44:12.782Z,66.00
2022-10-30T23:46:39.574Z,66.00
2022-10-30T23:49:06.479Z,66.00
2022-10-30T23:51:33.304Z,66.00
2022-10-30T23:54:00.136Z,65.80
2022-10-30T23:56:29.439Z,65.80
2022-10-30T23:58:56.235Z,65.70
